createdAt,value
2018-08-06T00:00:25.587Z,95379.59
2018-08-06T00:02:56.592Z,95378.02
2018-08-06T00:05:27.609Z,95379.48
2018-08-06T00:07:58.544Z,95380.52
2018-08-06T00:10:29.944Z,95381.44
2018-08-06T00:13:00.833Z,95370.80
2018-08-06T00:15:31.653Z,95369.51
2018-08-06T00:18:02.629Z,95365.70
2018-08-06T00:20:33.618Z,95366.30
2018-08-06T00:23:04.602Z,95375.21
2018-08-06T00:25:35.600Z,95368.83
2018-08-06T00:28:06.553Z,95368.08
2018-08-06T00:30:37.687Z,95364.81
2018-08-06T00:33:08.597Z,95371.89
2018-08-06T00:35:39.612Z,95362.83
2018-08-06T00:38:10.561Z,95362.55
2018-08-06T00:40:41.672Z,95366.30
2018-08-06T00:43:12.534Z,95366.84
2018-08-06T00:45:43.684Z,95366.95
2018-08-06T00:48:14.609Z,95363.99
2018-08-06T00:50:45.635Z,95355.44
2018-08-06T00:53:16.557Z,95362.86
2018-08-06T00:55:47.630Z,95367.15
2018-08-06T00:58:18.558Z,95361.77
2018-08-06T01:00:49.663Z,95368.16
2018-08-06T01:03:20.589Z,95365.77
2018-08-06T01:05:51.617Z,95360.78
2018-08-06T01:08:22.609Z,95358.27
2018-08-06T01:10:53.609Z,95357.95
2018-08-06T01:13:24.680Z,95357.97
2018-08-06T01:15:55.616Z,95358.67
2018-08-06T01:18:26.585Z,95365.28
2018-08-06T01:20:57.621Z,95361.58
2018-08-06T01:23:28.545Z,95360.01
2018-08-06T01:25:59.654Z,95359.11
2018-08-06T01:28:30.730Z,95359.30
2018-08-06T01:31:01.615Z,95356.57
2018-08-06T01:33:32.625Z,95352.52
2018-08-06T01:36:03.657Z,95352.98
2018-08-06T01:38:34.568Z,95347.19
2018-08-06T01:41:05.678Z,95351.54
2018-08-06T01:43:36.624Z,95348.82
2018-08-06T01:46:07.632Z,95360.00
2018-08-06T01:48:38.557Z,95359.75
2018-08-06T01:51:09.697Z,95349.20
2018-08-06T01:53:40.553Z,95353.90
2018-08-06T01:56:11.684Z,95347.77
2018-08-06T01:58:42.540Z,95348.26
2018-08-06T02:01:13.712Z,95353.18
2018-08-06T02:03:44.554Z,95354.36
2018-08-06T02:06:15.699Z,95347.47
2018-08-06T02:08:46.566Z,95348.61
2018-08-06T02:11:17.635Z,95354.94
2018-08-06T02:13:48.605Z,95355.38
2018-08-06T02:16:19.618Z,95362.05
2018-08-06T02:18:50.551Z,95359.20
2018-08-06T02:21:21.620Z,95367.03
2018-08-06T02:23:52.548Z,95365.42
2018-08-06T02:26:23.600Z,95367.03
2018-08-06T02:28:54.547Z,95367.32
2018-08-06T02:31:25.702Z,95363.06
2018-08-06T02:36:48.297Z,95368.05
2018-08-06T02:39:19.318Z,95375.29
2018-08-06T02:41:50.309Z,95375.83
2018-08-06T02:44:21.315Z,95383.16
2018-08-06T02:46:52.314Z,95380.46
2018-08-06T02:49:23.315Z,95387.69
2018-08-06T02:51:54.311Z,95389.40
2018-08-06T02:54:25.290Z,95385.73
2018-08-06T02:56:56.312Z,95388.89
2018-08-06T02:59:27.328Z,95387.05
2018-08-06T03:01:59.310Z,95392.89
2018-08-06T03:04:30.508Z,95391.55
2018-08-06T03:07:01.625Z,95390.02
2018-08-06T03:09:32.661Z,95393.73
2018-08-06T03:12:04.628Z,95394.11
2018-08-06T03:14:35.542Z,95395.02
2018-08-06T03:17:06.859Z,95402.70
2018-08-06T03:19:37.701Z,95407.99
2018-08-06T03:22:08.608Z,95412.06
2018-08-06T03:24:39.553Z,95407.88
2018-08-06T03:27:10.654Z,95409.96
2018-08-06T03:29:41.599Z,95407.05
2018-08-06T03:32:12.724Z,95410.38
2018-08-06T03:34:43.566Z,95403.83
2018-08-06T03:37:14.685Z,95408.53
2018-08-06T03:39:45.571Z,95410.72
2018-08-06T03:42:16.613Z,95402.67
2018-08-06T03:44:47.620Z,95411.92
2018-08-06T03:47:18.661Z,95413.41
2018-08-06T03:49:49.597Z,95410.38
2018-08-06T03:52:20.608Z,95402.38
2018-08-06T03:54:51.554Z,95407.12
2018-08-06T03:57:22.612Z,95406.38
2018-08-06T03:59:53.669Z,95418.20
2018-08-06T04:02:24.682Z,95414.70
2018-08-06T04:04:55.581Z,95412.02
2018-08-06T04:07:26.647Z,95412.27
2018-08-06T04:09:57.617Z,95417.81
2018-08-06T04:12:28.685Z,95410.16
